Time;durP1;ratioP1;P1;durP2;ratioP2;P2;SDS_P1;SDS_P2;PMS_P1;PMS_P2;Temp;Humidity;BMP_temperature;BMP_pressure;BME280_temperature;BME280_humidity;BME280_pressure;Samples;Min_cycle;Max_cycle;Signal;HPM_P1;HPM_P2
2023/01/30 00:01:46;;;;;;;23.70;9.77;;;5.90;99.90;;;;;;5052822;28;20044;-63
2023/01/30 00:04:12;;;;;;;22.52;9.85;;;6.10;99.90;;;;;;5051734;28;20441;-62
2023/01/30 00:06:41;;;;;;;18.80;8.90;;;6.10;99.90;;;;;;5051867;28;20167;-62
2023/01/30 00:09:13;;;;;;;19.48;8.02;;;6.10;99.90;;;;;;5051556;28;20390;-62
2023/01/30 00:11:41;;;;;;;15.32;8.15;;;;;;;;;;5053117;28;20055;-63
2023/01/30 00:14:07;;;;;;;19.55;8.10;;;6.10;99.90;;;;;;5053302;28;20047;-63
2023/01/30 00:16:34;;;;;;;22.50;7.60;;;;;;;;;;5051816;28;20078;-62
2023/01/30 00:19:00;;;;;;;15.77;7.28;;;;;;;;;;5053584;28;20716;-62
2023/01/30 00:21:26;;;;;;;13.85;7.15;;;6.30;99.90;;;;;;5052869;28;20163;-62
2023/01/30 00:23:52;;;;;;;16.83;7.18;;;;;;;;;;5054674;28;20140;-62
2023/01/30 00:26:18;;;;;;;18.52;6.75;;;;;;;;;;5053617;28;20405;-62
2023/01/30 00:28:44;;;;;;;16.45;6.82;;;;;;;;;;5054036;28;20039;-62
2023/01/30 00:31:10;;;;;;;23.50;7.47;;;;;;;;;;5053591;28;20075;-62
2023/01/30 00:33:37;;;;;;;25.92;8.15;;;6.10;99.90;;;;;;5053196;28;20056;-61
2023/01/30 00:36:03;;;;;;;21.02;7.75;;;6.20;99.90;;;;;;5054250;28;20047;-62
2023/01/30 00:38:29;;;;;;;16.42;6.90;;;;;;;;;;5052868;28;20056;-61
2023/01/30 00:40:55;;;;;;;18.92;6.68;;;6.20;99.90;;;;;;5053254;28;20052;-62
2023/01/30 00:49:16;;;;;;;23.65;7.70;;;6.20;99.90;;;;;;5052341;28;20041;-62
2023/01/30 00:51:42;;;;;;;20.17;7.57;;;;;;;;;;5051221;28;20036;-62
2023/01/30 00:54:08;;;;;;;15.45;6.35;;;;;;;;;;5052272;28;20051;-63
2023/01/30 00:56:34;;;;;;;19.65;7.03;;;;;;;;;;5051571;28;20072;-62
2023/01/30 00:59:00;;;;;;;17.17;7.35;;;6.20;99.90;;;;;;5053038;28;20102;-63
2023/01/30 01:01:26;;;;;;;21.80;8.23;;;6.00;99.90;;;;;;5051975;28;20049;-63
2023/01/30 01:03:52;;;;;;;21.10;6.38;;;;;;;;;;5051799;28;20044;-62
2023/01/30 01:06:18;;;;;;;17.02;7.10;;;;;;;;;;5051590;28;20036;-63
2023/01/30 01:08:44;;;;;;;17.95;6.95;;;;;;;;;;5050784;28;20040;-63
2023/01/30 01:11:22;;;;;;;17.85;7.53;;;;;;;;;;5052519;28;20036;-62
2023/01/30 01:13:50;;;;;;;18.70;7.60;;;6.10;99.90;;;;;;5051611;28;20627;-61
2023/01/30 01:16:16;;;;;;;16.17;6.72;;;;;;;;;;5052345;28;20074;-62
2023/01/30 01:18:42;;;;;;;16.30;6.88;;;;;;;;;;5051102;28;20059;-62
2023/01/30 01:21:08;;;;;;;16.23;6.65;;;6.10;99.90;;;;;;5050843;28;20407;-63
2023/01/30 01:23:34;;;;;;;13.65;6.80;;;;;;;;;;5051593;28;20036;-62
2023/01/30 01:26:01;;;;;;;14.93;6.25;;;6.10;99.90;;;;;;5052774;28;20041;-62
2023/01/30 01:28:27;;;;;;;15.57;6.20;;;;;;;;;;5050633;28;20047;-63
2023/01/30 01:30:53;;;;;;;14.35;6.00;;;;;;;;;;5052140;28;20549;-62
2023/01/30 01:33:19;;;;;;;15.63;6.47;;;6.20;99.90;;;;;;5050994;28;20048;-62
2023/01/30 01:35:46;;;;;;;13.75;6.40;;;6.00;99.90;;;;;;5052208;28;20432;-64
2023/01/30 01:38:12;;;;;;;20.75;7.20;;;;;;;;;;5051049;28;20055;-63
2023/01/30 01:43:24;;;;;;;17.10;6.55;;;6.20;99.90;;;;;;5051905;28;20045;-62
2023/01/30 01:45:54;;;;;;;19.38;8.50;;;6.20;99.90;;;;;;5051765;28;20131;-62
2023/01/30 01:48:30;;;;;;;19.42;7.25;;;6.20;99.90;;;;;;5052010;28;20047;-62
2023/01/30 01:51:01;;;;;;;20.80;7.15;;;6.00;99.90;;;;;;5052718;28;20045;-63
2023/01/30 01:53:35;;;;;;;17.88;7.68;;;6.00;99.90;;;;;;5053149;28;20813;-63
2023/01/30 01:56:03;;;;;;;20.00;8.00;;;6.10;99.90;;;;;;5057153;28;20514;-64
2023/01/30 01:58:34;;;;;;;21.63;9.25;;;6.20;99.90;;;;;;5056013;28;20068;-63
2023/01/30 02:01:00;;;;;;;16.88;7.30;;;;;;;;;;5057508;28;20106;-63
2023/01/30 02:03:31;;;;;;;27.55;8.15;;;6.20;99.90;;;;;;5055613;28;20143;-62
2023/01/30 02:06:00;;;;;;;33.03;7.70;;;6.20;99.90;;;;;;5054701;28;20471;-62
2023/01/30 02:08:38;;;;;;;28.08;7.53;;;6.20;99.90;;;;;;5054929;28;20041;-63
2023/01/30 02:11:17;;;;;;;25.90;6.60;;;6.30;99.90;;;;;;5055457;28;20076;-64
2023/01/30 02:13:44;;;;;;;29.80;7.70;;;6.10;99.90;;;;;;5055344;28;20036;-63
2023/01/30 02:16:10;;;;;;;28.52;7.80;;;6.30;99.90;;;;;;5055163;28;20051;-63
2023/01/30 02:18:38;;;;;;;23.65;7.50;;;6.30;99.90;;;;;;5053817;28;20044;-63
2023/01/30 02:21:19;;;;;;;20.95;6.95;;;6.20;99.90;;;;;;5053719;28;20102;-64
2023/01/30 02:23:57;;;;;;;26.20;8.57;;;6.20;99.90;;;;;;5054241;28;20055;-63
2023/01/30 02:26:53;;;;;;;33.47;8.27;;;6.30;99.90;;;;;;5054435;28;20698;-63
2023/01/30 02:29:54;;;;;;;22.90;6.80;;;6.30;99.90;;;;;;5054692;28;20055;-64
2023/01/30 02:32:56;;;;;;;34.60;7.70;;;6.30;99.90;;;;;;5052778;28;20033;-63
2023/01/30 02:35:48;;;;;;;24.75;6.88;;;6.30;99.90;;;;;;5054941;28;20052;-64
2023/01/30 02:38:40;;;;;;;21.50;5.95;;;6.40;99.90;;;;;;5053959;28;20037;-63
2023/01/30 02:41:33;;;;;;;28.17;6.32;;;6.40;99.90;;;;;;5054710;28;20471;-62
2023/01/30 02:44:15;;;;;;;25.73;6.15;;;6.30;99.90;;;;;;5052425;28;20674;-62
2023/01/30 02:47:17;;;;;;;26.23;6.43;;;6.40;99.90;;;;;;5054511;28;20105;-63
2023/01/30 02:50:01;;;;;;;26.42;5.75;;;6.30;99.90;;;;;;5054118;28;20048;-64
2023/01/30 02:52:28;;;;;;;26.73;6.20;;;6.60;99.90;;;;;;5052450;28;20071;-62
2023/01/30 02:54:54;;;;;;;27.50;6.95;;;;;;;;;;5054908;28;20524;-62
2023/01/30 02:57:22;;;;;;;25.55;6.35;;;6.30;99.90;;;;;;5054141;28;20155;-63
2023/01/30 02:59:54;;;;;;;31.08;6.25;;;6.40;99.90;;;;;;5054641;28;20109;-62
2023/01/30 03:03:06;;;;;;;27.77;5.75;;;6.40;99.90;;;;;;5053218;28;20056;-63
2023/01/30 03:06:09;;;;;;;33.08;6.38;;;6.50;99.90;;;;;;5053899;28;20060;-64
2023/01/30 03:08:46;;;;;;;;;;;6.50;99.90;;;;;;5053898;28;20048;-63
2023/01/30 03:11:12;;;;;;;20.13;4.50;;;6.40;99.90;;;;;;5054046;28;19924;-63
2023/01/30 03:14:08;;;;;;;29.23;5.43;;;6.50;99.90;;;;;;5053511;28;20041;-63
2023/01/30 03:16:38;;;;;;;28.98;4.97;;;5.30;99.90;;;;;;5055108;28;20045;-63
2023/01/30 03:19:05;;;;;;;24.98;5.10;;;6.30;99.90;;;;;;5054471;28;20052;-63
2023/01/30 03:21:32;;;;;;;19.40;4.25;;;6.30;99.90;;;;;;5054205;28;20044;-64
2023/01/30 03:23:58;;;;;;;29.83;5.00;;;6.40;99.90;;;;;;5053998;28;20166;-63
2023/01/30 03:26:29;;;;;;;22.80;4.53;;;6.40;99.90;;;;;;5055321;28;20056;-63
2023/01/30 03:28:55;;;;;;;28.73;4.50;;;6.30;99.90;;;;;;5054413;28;20504;-64
2023/01/30 03:31:21;;;;;;;29.67;4.80;;;6.20;99.90;;;;;;5056329;28;20442;-63
2023/01/30 03:33:47;;;;;;;23.65;4.28;;;6.20;99.90;;;;;;5054202;28;20090;-64
2023/01/30 03:36:13;;;;;;;20.70;3.97;;;6.10;99.90;;;;;;5054335;28;20037;-64
2023/01/30 03:38:39;;;;;;;20.92;3.67;;;;;;;;;;5053763;28;20072;-63
2023/01/30 03:41:06;;;;;;;26.02;4.07;;;;;;;;;;5055004;28;20457;-64
2023/01/30 03:43:31;;;;;;;24.30;4.13;;;6.00;99.90;;;;;;5054938;28;20127;-64
2023/01/30 03:45:57;;;;;;;23.98;4.10;;;;;;;;;;5052597;28;20123;-64
2023/01/30 03:48:23;;;;;;;26.77;3.90;;;6.00;99.90;;;;;;5051875;28;20051;-64
2023/01/30 03:50:49;;;;;;;30.85;4.45;;;5.90;99.90;;;;;;5052701;28;20037;-64
2023/01/30 03:53:15;;;;;;;26.40;4.30;;;;;;;;;;5053767;28;20449;-64
2023/01/30 03:55:41;;;;;;;20.23;3.88;;;;;;;;;;5052643;28;20520;-64
2023/01/30 03:58:07;;;;;;;21.27;3.78;;;5.90;99.90;;;;;;5053206;28;20633;-64
2023/01/30 04:00:33;;;;;;;24.85;3.92;;;;;;;;;;5053426;28;20048;-64
2023/01/30 04:02:59;;;;;;;24.67;3.92;;;;;;;;;;5053061;28;20519;-63
2023/01/30 04:05:25;;;;;;;24.38;5.60;;;;;;;;;;5052731;28;20102;-64
2023/01/30 04:07:54;;;;;;;27.83;4.03;;;5.80;99.90;;;;;;5052554;28;20074;-63
2023/01/30 04:10:20;;;;;;;28.15;5.57;;;;;;;;;;5052575;28;20150;-63
2023/01/30 04:12:47;;;;;;;27.27;5.28;;;;;;;;;;5052946;28;20048;-63
2023/01/30 04:15:13;;;;;;;27.77;5.60;;;;;;;;;;5053638;28;20052;-64
2023/01/30 04:17:39;;;;;;;27.45;4.38;;;;;;;;;;5051401;28;20076;-63
2023/01/30 04:20:05;;;;;;;21.67;3.78;;;;;;;;;;5052219;28;20102;-63
2023/01/30 04:22:31;;;;;;;24.02;4.72;;;;;;;;;;5050344;28;20149;-63
2023/01/30 04:24:57;;;;;;;27.65;3.97;;;5.70;99.90;;;;;;5053116;28;20527;-63
2023/01/30 04:27:23;;;;;;;36.15;6.28;;;5.70;99.90;;;;;;5052337;28;21270;-63
2023/01/30 04:29:48;;;;;;;42.65;6.65;;;5.60;99.90;;;;;;5052627;28;20059;-63
2023/01/30 04:32:14;;;;;;;26.75;4.85;;;;;;;;;;5051655;28;21460;-62
2023/01/30 04:34:42;;;;;;;29.10;5.85;;;;;;;;;;5052616;28;20033;-64
2023/01/30 04:37:08;;;;;;;28.17;5.68;;;;;;;;;;5052949;28;20080;-63
2023/01/30 04:39:34;;;;;;;26.80;4.15;;;;;;;;;;5051141;28;20140;-63
2023/01/30 04:42:01;;;;;;;20.88;3.15;;;;;;;;;;5052409;28;20041;-63
2023/01/30 04:44:27;;;;;;;19.33;5.15;;;;;;;;;;5052902;28;20062;-64
2023/01/30 04:46:53;;;;;;;23.17;3.47;;;5.60;99.90;;;;;;5053726;28;20036;-63
2023/01/30 04:49:19;;;;;;;21.38;3.78;;;;;;;;;;5052769;28;20041;-63
2023/01/30 04:51:45;;;;;;;25.45;4.28;;;;;;;;;;5052993;28;20068;-62
2023/01/30 04:54:11;;;;;;;35.25;5.07;;;5.30;99.90;;;;;;5052624;28;20162;-62
2023/01/30 04:56:37;;;;;;;29.67;4.80;;;;;;;;;;5054335;28;20513;-63
2023/01/30 04:59:03;;;;;;;21.05;3.40;;;;;;;;;;5052951;28;20071;-63
2023/01/30 05:01:37;;;;;;;29.35;4.22;;;5.20;99.90;;;;;;5053680;28;20052;-63
2023/01/30 05:04:04;;;;;;;26.55;4.70;;;5.40;99.90;;;;;;5052285;28;20098;-64
2023/01/30 05:06:31;;;;;;;22.60;3.75;;;5.30;99.90;;;;;;5051590;28;20071;-63
2023/01/30 05:08:58;;;;;;;26.73;5.00;;;5.30;99.90;;;;;;5051526;28;20044;-63
2023/01/30 05:11:25;;;;;;;23.67;3.53;;;5.20;99.90;;;;;;5052234;28;20126;-63
2023/01/30 05:13:52;;;;;;;29.85;4.00;;;;;;;;;;5051443;28;20141;-64
2023/01/30 05:16:19;;;;;;;28.90;4.15;;;5.10;99.90;;;;;;5052132;28;20056;-63
2023/01/30 05:18:45;;;;;;;24.45;3.90;;;;;;;;;;5051421;28;20048;-64
2023/01/30 05:21:14;;;;;;;22.73;3.90;;;5.20;99.90;;;;;;5051515;28;20497;-64
2023/01/30 05:23:40;;;;;;;21.73;3.38;;;5.30;99.90;;;;;;5050862;28;20063;-64
2023/01/30 05:26:06;;;;;;;32.58;4.53;;;;;;;;;;5052175;28;20045;-63
2023/01/30 05:28:32;;;;;;;28.73;3.72;;;;;;;;;;5051978;28;20049;-63
2023/01/30 05:31:07;;;;;;;21.92;3.40;;;5.10;99.90;;;;;;5052495;28;20392;-63
2023/01/30 05:33:33;;;;;;;29.95;3.97;;;;;;;;;;5051988;28;20054;-63
2023/01/30 05:35:59;;;;;;;18.65;3.50;;;;;;;;;;5051214;28;20055;-63
2023/01/30 05:38:26;;;;;;;23.88;3.67;;;;;;;;;;5051711;28;21222;-63
2023/01/30 05:41:04;;;;;;;23.38;4.00;;;5.00;99.90;;;;;;5051274;28;20142;-63
2023/01/30 05:43:30;;;;;;;26.25;4.00;;;;;;;;;;5052173;28;20393;-63
2023/01/30 05:45:57;;;;;;;25.52;4.38;;;5.10;99.90;;;;;;5051551;28;20033;-65
2023/01/30 05:48:24;;;;;;;31.00;4.13;;;5.20;99.90;;;;;;5032273;28;20129;-64
2023/01/30 05:50:51;;;;;;;33.20;5.35;;;5.10;99.90;;;;;;5051253;28;20047;-64
2023/01/30 05:53:18;;;;;;;29.35;6.25;;;5.10;99.90;;;;;;5050805;28;20083;-64
2023/01/30 05:55:44;;;;;;;38.13;5.07;;;;;;;;;;5051989;28;20036;-64
2023/01/30 05:58:10;;;;;;;30.67;4.57;;;;;;;;;;5050299;28;20087;-64
2023/01/30 06:00:36;;;;;;;27.70;4.95;;;;;;;;;;5052368;28;20045;-65
2023/01/30 06:03:02;;;;;;;33.03;4.72;;;;;;;;;;5051698;28;20043;-65
2023/01/30 06:05:29;;;;;;;29.80;3.78;;;;;;;;;;5053389;28;20047;-65
2023/01/30 06:07:55;;;;;;;29.65;4.05;;;;;;;;;;5052400;28;20041;-64
2023/01/30 06:10:21;;;;;;;27.55;3.63;;;;;;;;;;5052718;28;20040;-64
2023/01/30 06:12:47;;;;;;;30.48;4.97;;;;;;;;;;5052622;28;20033;-64
2023/01/30 06:15:13;;;;;;;22.17;3.90;;;;;;;;;;5052744;28;20350;-64
2023/01/30 06:17:42;;;;;;;33.50;4.55;;;5.80;99.90;;;;;;5050892;28;20048;-65
2023/01/30 06:20:09;;;;;;;27.25;4.93;;;5.60;99.90;;;;;;5052416;28;20037;-64
2023/01/30 06:22:35;;;;;;;31.02;5.22;;;;;;;;;;5050923;28;20041;-64
2023/01/30 06:25:01;;;;;;;34.38;4.88;;;;;;;;;;5051774;28;20051;-64
2023/01/30 06:27:27;;;;;;;26.08;5.25;;;;;;;;;;5051275;28;20044;-65
2023/01/30 06:29:53;;;;;;;36.47;6.75;;;;;;;;;;5051223;28;20048;-63
2023/01/30 06:32:19;;;;;;;24.80;4.20;;;;;;;;;;5050801;28;20052;-64
2023/01/30 06:34:45;;;;;;;31.88;5.13;;;;;;;;;;5051218;28;20119;-62
2023/01/30 06:37:11;;;;;;;27.98;4.93;;;;;;;;;;5051208;28;20045;-62
2023/01/30 06:39:37;;;;;;;32.47;4.55;;;;;;;;;;5051216;28;20041;-62
2023/01/30 06:42:04;;;;;;;27.45;3.95;;;;;;;;;;5054637;28;20048;-62
2023/01/30 06:44:30;;;;;;;26.05;5.53;;;;;;;;;;5055352;28;20351;-62
2023/01/30 06:46:56;;;;;;;30.48;4.78;;;;;;;;;;5054269;28;20047;-62
2023/01/30 06:49:22;;;;;;;32.00;6.50;;;;;;;;;;5052044;28;20044;-62
2023/01/30 06:51:48;;;;;;;29.15;4.70;;;;;;;;;;5053758;28;20135;-62
2023/01/30 06:54:14;;;;;;;30.23;4.07;;;;;;;;;;5054975;28;20200;-62
2023/01/30 06:56:40;;;;;;;42.50;8.35;;;;;;;;;;5054212;28;20036;-62
2023/01/30 06:59:06;;;;;;;30.08;4.68;;;;;;;;;;5051975;28;20552;-62
2023/01/30 07:01:32;;;;;;;34.20;5.78;;;;;;;;;;5054662;28;20086;-62
2023/01/30 07:03:58;;;;;;;28.33;5.40;;;;;;;;;;5054199;28;20033;-62
2023/01/30 07:06:27;;;;;;;25.38;4.13;;;5.70;99.90;;;;;;5054991;28;20988;-63
2023/01/30 07:08:57;;;;;;;31.55;4.50;;;;;;;;;;5054559;28;20048;-62
2023/01/30 07:11:23;;;;;;;24.10;4.18;;;;;;;;;;5055272;28;20141;-62
2023/01/30 07:13:49;;;;;;;32.45;4.75;;;5.80;99.90;;;;;;5054455;28;20043;-62
2023/01/30 07:16:15;;;;;;;24.75;5.03;;;;;;;;;;5051893;28;20036;-63
2023/01/30 07:18:41;;;;;;;31.42;5.07;;;;;;;;;;5053772;28;20048;-63
2023/01/30 07:21:07;;;;;;;33.30;5.47;;;5.70;99.90;;;;;;5056485;28;20047;-62
2023/01/30 07:23:33;;;;;;;30.83;5.65;;;;;;;;;;5055722;28;20053;-63
2023/01/30 07:26:03;;;;;;;27.02;4.18;;;5.70;99.90;;;;;;5054035;28;20055;-62
2023/01/30 07:28:29;;;;;;;26.50;4.25;;;;;;;;;;5053935;28;20515;-62
2023/01/30 07:30:58;;;;;;;28.95;4.88;;;5.80;99.90;;;;;;5055654;28;20032;-63
2023/01/30 07:33:24;;;;;;;33.78;4.93;;;5.70;99.90;;;;;;5054000;28;20051;-62
2023/01/30 07:35:50;;;;;;;28.35;5.78;;;5.70;99.90;;;;;;5054077;28;20509;-62
2023/01/30 07:38:16;;;;;;;24.15;5.47;;;;;;;;;;5055066;28;20048;-62
2023/01/30 07:40:42;;;;;;;22.35;4.03;;;5.60;99.90;;;;;;5053786;28;20135;-63
2023/01/30 07:43:11;;;;;;;25.55;5.68;;;5.70;99.90;;;;;;5053798;28;20185;-62
2023/01/30 07:45:42;;;;;;;35.17;6.13;;;5.70;99.90;;;;;;5053538;28;20059;-62
2023/01/30 07:48:12;;;;;;;32.05;5.78;;;5.80;99.90;;;;;;5053436;28;20068;-62
2023/01/30 07:50:39;;;;;;;30.05;4.38;;;;;;;;;;5052695;28;20032;-62
2023/01/30 07:53:06;;;;;;;32.72;4.70;;;5.90;99.90;;;;;;5051507;28;20052;-61
2023/01/30 07:55:33;;;;;;;31.63;4.47;;;;;;;;;;5053096;28;20713;-62
2023/01/30 07:57:59;;;;;;;26.50;4.07;;;;;;;;;;5052439;28;20422;-62
2023/01/30 08:00:25;;;;;;;26.23;5.35;;;5.90;99.90;;;;;;5052389;28;20059;-63
2023/01/30 08:02:52;;;;;;;30.52;4.28;;;;;;;;;;5052036;28;20040;-61
2023/01/30 08:05:18;;;;;;;27.27;4.05;;;;;;;;;;5052867;28;20190;-62
2023/01/30 08:07:46;;;;;;;27.95;5.88;;;;;;;;;;5052792;28;20059;-62
2023/01/30 08:10:12;;;;;;;35.20;5.50;;;6.00;99.90;;;;;;5051872;28;20082;-62
2023/01/30 08:12:39;;;;;;;38.10;6.35;;;5.80;99.90;;;;;;5051973;28;20664;-62
2023/01/30 08:15:06;;;;;;;27.27;4.80;;;6.20;99.90;;;;;;5050566;28;20074;-62
2023/01/30 08:17:32;;;;;;;26.67;5.45;;;5.90;99.90;;;;;;5051885;28;20052;-62
2023/01/30 08:19:58;;;;;;;34.42;5.47;;;;;;;;;;5052460;28;20521;-62
2023/01/30 08:22:24;;;;;;;24.02;4.55;;;;;;;;;;5049710;28;20055;-63
2023/01/30 08:24:50;;;;;;;33.60;5.25;;;;;;;;;;5051915;28;20047;-62
2023/01/30 08:27:16;;;;;;;27.80;4.22;;;;;;;;;;5053125;28;20570;-63
2023/01/30 08:29:43;;;;;;;27.05;4.57;;;6.00;99.90;;;;;;5051322;28;20355;-62
2023/01/30 08:32:09;;;;;;;28.77;5.05;;;;;;;;;;5051666;28;20045;-62
2023/01/30 08:34:35;;;;;;;30.38;5.35;;;6.10;99.90;;;;;;5051176;28;20044;-62
2023/01/30 08:37:01;;;;;;;34.50;5.78;;;;;;;;;;5051266;28;20124;-62
2023/01/30 08:39:27;;;;;;;29.98;4.15;;;;;;;;;;5052413;28;20117;-63
2023/01/30 08:41:53;;;;;;;28.83;5.00;;;;;;;;;;5051098;28;20770;-62
2023/01/30 08:44:19;;;;;;;30.00;5.60;;;;;;;;;;5051599;28;20089;-62
2023/01/30 08:46:45;;;;;;;38.05;6.65;;;;;;;;;;5051065;28;20147;-62
2023/01/30 08:49:11;;;;;;;34.28;6.75;;;;;;;;;;5050929;28;20033;-63
2023/01/30 08:51:37;;;;;;;28.02;5.15;;;;;;;;;;5050794;28;20044;-63
2023/01/30 08:54:06;;;;;;;32.63;5.85;;;;;;;;;;5050566;28;20440;-62
2023/01/30 08:56:32;;;;;;;25.25;4.22;;;;;;;;;;5051016;28;20047;-63
2023/01/30 08:58:58;;;;;;;38.13;4.85;;;;;;;;;;5051332;28;20515;-62
2023/01/30 09:01:24;;;;;;;25.92;5.20;;;8.00;99.90;;;;;;5052759;28;20053;-63
2023/01/30 09:03:49;;;;;;;25.83;5.65;;;8.20;99.90;;;;;;5051068;28;20036;-62
2023/01/30 09:06:15;;;;;;;28.92;4.78;;;8.40;99.90;;;;;;5053303;28;20089;-63
2023/01/30 09:08:41;;;;;;;28.83;5.00;;;7.80;99.90;;;;;;5052086;28;20028;-62
2023/01/30 09:11:07;;;;;;;28.88;5.15;;;7.40;99.90;;;;;;5054324;28;20040;-64
2023/01/30 09:13:33;;;;;;;27.88;5.10;;;7.10;99.90;;;;;;5053217;28;20405;-63
2023/01/30 09:15:59;;;;;;;27.80;5.70;;;7.00;99.90;;;;;;5051852;28;20397;-63
2023/01/30 09:18:25;;;;;;;29.02;5.15;;;7.00;99.90;;;;;;5050871;28;20049;-63
2023/01/30 09:20:51;;;;;;;31.23;5.90;;;;;;;;;;5051253;28;20145;-63
2023/01/30 09:23:16;;;;;;;28.95;4.78;;;6.90;99.90;;;;;;5052226;28;20258;-63
2023/01/30 09:25:46;;;;;;;31.75;5.75;;;6.80;99.90;;;;;;5051286;28;20052;-63
2023/01/30 09:28:12;;;;;;;28.95;5.50;;;6.80;99.90;;;;;;5051679;28;20044;-62
2023/01/30 09:30:37;;;;;;;30.83;6.22;;;6.70;99.90;;;;;;5051333;28;20032;-64
2023/01/30 09:33:03;;;;;;;29.55;4.68;;;6.70;99.90;;;;;;5052535;28;20048;-64
2023/01/30 09:35:29;;;;;;;28.80;5.50;;;6.60;99.90;;;;;;5051319;28;20037;-64
2023/01/30 09:37:55;;;;;;;37.90;4.97;;;;;;;;;;5050578;28;20685;-64
2023/01/30 09:40:28;;;;;;;26.52;5.18;;;6.60;99.90;;;;;;5051522;28;20319;-64
2023/01/30 09:43:10;;;;;;;35.75;5.13;;;6.50;99.90;;;;;;5051157;28;20139;-64
2023/01/30 09:45:54;;;;;;;32.95;5.43;;;6.60;99.90;;;;;;5051327;28;20468;-63
2023/01/30 09:48:43;;;;;;;33.45;5.82;;;6.60;99.90;;;;;;5051459;28;20048;-64
2023/01/30 09:51:18;;;;;;;34.55;4.57;;;6.60;99.90;;;;;;5051928;28;20045;-63
2023/01/30 09:53:44;;;;;;;33.78;6.05;;;;;;;;;;5050301;28;20652;-63
2023/01/30 09:56:10;;;;;;;25.80;4.75;;;6.50;99.90;;;;;;5052048;28;21219;-63
2023/01/30 09:58:55;;;;;;;31.98;5.45;;;6.60;99.90;;;;;;5051179;28;20048;-63
2023/01/30 10:01:43;;;;;;;27.73;5.70;;;6.50;99.90;;;;;;5051706;28;20147;-62
2023/01/30 10:04:23;;;;;;;38.08;6.68;;;6.60;99.90;;;;;;5049337;28;20028;-61
2023/01/30 10:07:23;;;;;;;27.20;5.95;;;6.80;99.90;;;;;;5050312;28;20045;-63
2023/01/30 10:10:03;;;;;;;35.65;6.00;;;6.70;99.90;;;;;;5050458;28;20060;-63
2023/01/30 10:12:52;;;;;;;29.45;5.25;;;6.90;99.90;;;;;;5050622;28;20135;-62
2023/01/30 10:15:35;;;;;;;32.03;5.10;;;7.00;99.90;;;;;;5050329;28;20063;-62
2023/01/30 10:18:04;;;;;;;25.58;4.50;;;7.00;99.90;;;;;;5053005;28;20069;-63
2023/01/30 10:20:32;;;;;;;32.22;5.10;;;7.00;99.90;;;;;;5055236;28;20527;-63
2023/01/30 10:23:23;;;;;;;25.02;4.18;;;7.00;99.90;;;;;;5054988;28;21104;-63
2023/01/30 10:25:57;;;;;;;32.35;5.38;;;6.90;99.90;;;;;;5055529;28;20041;-64
2023/01/30 10:28:39;;;;;;;29.52;5.82;;;6.90;99.90;;;;;;5055439;28;20044;-64
2023/01/30 10:31:17;;;;;;;19.17;3.55;;;6.60;99.90;;;;;;5055768;28;20118;-62
2023/01/30 10:33:58;;;;;;;8.32;1.38;;;6.00;99.90;;;;;;5055110;28;20346;-62
2023/01/30 10:36:36;;;;;;;17.92;2.72;;;5.80;99.90;;;;;;5054533;28;20639;-63
2023/01/30 10:39:09;;;;;;;13.23;1.90;;;5.50;99.90;;;;;;5054836;28;20040;-63
2023/01/30 10:41:39;;;;;;;12.27;2.85;;;5.40;99.90;;;;;;5053119;28;20051;-64
2023/01/30 10:44:10;;;;;;;15.02;2.65;;;5.20;99.90;;;;;;5053588;28;20040;-64
2023/01/30 10:46:59;;;;;;;16.13;3.35;;;5.50;99.90;;;;;;5053023;28;20033;-63
2023/01/30 10:49:26;;;;;;;14.18;2.35;;;;;;;;;;5053084;28;20098;-63
2023/01/30 10:52:12;;;;;;;16.83;3.17;;;5.60;99.90;;;;;;5053387;28;20049;-63
2023/01/30 10:55:02;;;;;;;20.83;3.60;;;5.90;99.90;;;;;;5053081;28;20383;-62
2023/01/30 10:57:50;;;;;;;17.35;3.92;;;6.10;99.90;;;;;;5053238;28;20315;-62
2023/01/30 11:00:19;;;;;;;19.30;3.78;;;6.10;99.90;;;;;;5053481;28;20040;-62
2023/01/30 11:03:15;;;;;;;18.85;2.70;;;6.30;99.90;;;;;;5054427;28;20127;-62
2023/01/30 11:05:46;;;;;;;17.63;2.47;;;6.30;99.90;;;;;;5053020;28;20431;-62
2023/01/30 11:08:30;;;;;;;22.50;3.20;;;6.30;99.90;;;;;;5053133;28;20127;-62
2023/01/30 11:10:56;;;;;;;13.35;2.40;;;6.40;99.90;;;;;;5053114;28;20036;-62
2023/01/30 11:13:30;;;;;;;15.52;2.47;;;6.60;99.90;;;;;;5054434;28;20040;-62
2023/01/30 11:16:02;;;;;;;17.02;2.72;;;6.80;99.90;;;;;;5052758;28;21094;-62
2023/01/30 11:18:28;;;;;;;15.65;3.60;;;;;;;;;;5052473;28;20462;-61
2023/01/30 11:21:05;;;;;;;21.02;2.85;;;6.80;99.90;;;;;;5053738;28;20156;-63
2023/01/30 11:23:38;;;;;;;19.55;3.25;;;6.70;99.90;;;;;;5052478;28;20044;-62
2023/01/30 11:26:04;;;;;;;22.98;3.40;;;6.70;99.90;;;;;;5052163;28;20041;-63
2023/01/30 11:28:38;;;;;;;16.27;2.90;;;6.60;99.90;;;;;;5052861;28;20060;-62
2023/01/30 11:31:07;;;;;;;13.70;2.97;;;;;;;;;;5053257;28;21202;-63
2023/01/30 11:33:36;;;;;;;18.08;3.00;;;6.60;99.90;;;;;;5053846;28;20070;-63
2023/01/30 11:36:05;;;;;;;15.48;3.22;;;6.70;99.90;;;;;;5054006;28;20036;-63
2023/01/30 11:38:34;;;;;;;14.23;2.80;;;6.50;99.90;;;;;;5054045;28;20052;-64
2023/01/30 11:41:08;;;;;;;14.35;3.08;;;6.50;99.90;;;;;;5053568;28;20241;-64
2023/01/30 11:43:36;;;;;;;13.18;1.92;;;6.60;99.90;;;;;;5054739;28;20043;-64
2023/01/30 11:46:02;;;;;;;13.23;1.98;;;;;;;;;;5053569;28;20056;-63
2023/01/30 11:48:31;;;;;;;11.13;2.00;;;6.80;99.90;;;;;;5052342;28;20539;-64
2023/01/30 11:51:01;;;;;;;21.83;3.97;;;6.80;99.90;;;;;;5053070;28;20249;-64
2023/01/30 11:53:39;;;;;;;20.80;4.28;;;6.90;99.90;;;;;;5052968;28;20079;-63
2023/01/30 11:56:07;;;;;;;16.23;2.28;;;7.00;99.90;;;;;;5053861;28;20378;-62
2023/01/30 11:58:38;;;;;;;17.52;2.58;;;7.10;99.90;;;;;;5053153;28;20631;-63
2023/01/30 12:01:04;;;;;;;13.27;2.38;;;7.10;99.90;;;;;;5051686;28;20044;-64
2023/01/30 12:03:32;;;;;;;17.13;3.00;;;7.00;99.90;;;;;;5053878;28;20566;-62
2023/01/30 12:05:58;;;;;;;12.80;2.38;;;7.20;99.90;;;;;;5052317;28;20036;-63
2023/01/30 12:08:36;;;;;;;17.33;3.10;;;7.10;99.90;;;;;;5052915;28;20052;-62
2023/01/30 12:11:02;;;;;;;24.65;3.58;;;7.10;99.90;;;;;;5051931;28;20039;-63
2023/01/30 12:13:33;;;;;;;18.42;2.88;;;7.10;99.90;;;;;;5050961;28;20497;-63
2023/01/30 12:16:24;;;;;;;24.98;3.78;;;7.00;99.90;;;;;;5051631;28;20041;-62
2023/01/30 12:18:53;;;;;;;22.75;4.35;;;7.00;99.90;;;;;;5050671;28;20114;-63
2023/01/30 12:21:32;;;;;;;20.60;3.15;;;6.90;99.90;;;;;;5051010;28;20037;-62
2023/01/30 12:24:10;;;;;;;18.38;3.20;;;6.90;99.90;;;;;;5048744;28;20069;-62
2023/01/30 12:26:48;;;;;;;20.52;3.00;;;7.10;99.90;;;;;;5050962;28;20040;-63
2023/01/30 12:29:20;;;;;;;20.40;3.42;;;7.00;99.90;;;;;;5051508;28;20037;-63
2023/01/30 12:31:54;;;;;;;23.38;5.03;;;7.20;99.90;;;;;;5051449;28;20097;-62
2023/01/30 12:34:20;;;;;;;28.50;4.38;;;7.10;99.90;;;;;;5050976;28;20051;-63
2023/01/30 12:36:57;;;;;;;17.75;3.47;;;7.10;99.90;;;;;;5048523;28;20044;-62
2023/01/30 12:39:23;;;;;;;23.27;3.75;;;;;;;;;;5050411;28;20505;-63
2023/01/30 12:41:52;;;;;;;18.75;3.17;;;7.40;99.90;;;;;;5051268;28;20694;-63
2023/01/30 12:44:30;;;;;;;18.85;3.10;;;7.50;99.90;;;;;;5050978;28;20058;-63
2023/01/30 12:47:23;;;;;;;17.65;3.63;;;7.60;99.90;;;;;;5051667;28;20040;-63
2023/01/30 12:50:28;;;;;;;16.45;3.38;;;7.40;99.90;;;;;;5050741;28;20076;-63
2023/01/30 12:53:10;;;;;;;24.60;3.22;;;7.30;99.90;;;;;;5026696;28;20048;-63
2023/01/30 12:56:00;;;;;;;19.70;3.08;;;7.50;99.90;;;;;;5050874;28;20441;-64
2023/01/30 12:58:28;;;;;;;18.48;4.07;;;7.30;99.90;;;;;;5051496;28;20098;-62
2023/01/30 13:01:26;;;;;;;21.33;3.30;;;7.30;99.90;;;;;;5051856;28;20040;-62
2023/01/30 13:04:08;;;;;;;26.45;3.53;;;7.30;99.90;;;;;;5050800;28;22198;-63
2023/01/30 13:07:07;;;;;;;25.20;4.97;;;7.30;99.90;;;;;;5051910;28;20040;-63
2023/01/30 13:09:59;;;;;;;24.13;4.13;;;7.30;99.90;;;;;;5050795;28;20052;-62
2023/01/30 13:12:36;;;;;;;20.92;3.63;;;7.20;99.90;;;;;;5052129;28;20083;-62
2023/01/30 13:15:26;;;;;;;26.23;4.22;;;7.10;99.90;;;;;;5051905;28;20076;-62
2023/01/30 13:18:06;;;;;;;20.38;4.13;;;7.20;99.90;;;;;;5051113;28;20076;-63
2023/01/30 13:20:50;;;;;;;24.27;4.53;;;7.00;99.90;;;;;;5049762;28;20040;-62
2023/01/30 13:23:34;;;;;;;24.77;4.35;;;7.30;99.90;;;;;;5052470;28;20105;-63
2023/01/30 13:26:29;;;;;;;26.50;5.00;;;7.20;99.90;;;;;;5051660;28;20048;-62
2023/01/30 13:29:00;;;;;;;36.03;4.53;;;7.20;99.90;;;;;;5051885;28;20056;-63
2023/01/30 13:31:30;;;;;;;26.65;4.68;;;7.10;99.90;;;;;;5083952;28;20508;-63
2023/01/30 13:34:19;;;;;;;32.20;5.47;;;7.10;99.90;;;;;;5051599;28;20039;-63
2023/01/30 13:36:59;;;;;;;37.67;6.18;;;7.30;99.90;;;;;;5051141;28;20451;-63
2023/01/30 13:39:46;;;;;;;32.20;4.88;;;7.30;99.90;;;;;;5050620;28;21015;-62
2023/01/30 13:42:34;;;;;;;24.88;5.47;;;7.30;99.90;;;;;;5050165;28;20036;-63
2023/01/30 13:45:01;;;;;;;34.35;5.75;;;7.30;99.90;;;;;;5049990;28;20139;-62
2023/01/30 13:47:45;;;;;;;40.97;6.38;;;7.30;99.90;;;;;;5051017;28;20048;-62
2023/01/30 13:50:22;;;;;;;40.85;6.38;;;7.30;99.90;;;;;;5053095;28;20041;-63
2023/01/30 13:53:05;;;;;;;28.25;5.97;;;7.40;99.90;;;;;;5054617;28;20049;-63